KLMT/LMT METAR and TAF weather

Enter ICAO airport designator
Station Type Date Time Source
KLMT METAR 2019/06/26 05:53 UTC NOAA

KLMT 260553Z AUTO 00000KT 10SM CLR 10/01 A2992 RMK AO2 SLP106 T01000011 10222 20089 51017


Station Type Date Time Source
KLMT Decoded METAR 2019/06/26 05:53 UTC NOAA

KLAMATH FALLS INTERNATIONAL AIRPORT, OR, United States (KLMT) 42-09N 121-43W 1246M
Jun 26, 2019 - 01:53 AM EDT / 2019.06.26 0553 UTC
Wind: Calm:0
Visibility: 10 mile(s):0
Sky conditions: clear
Temperature: 50.0 F (10.0 C)
Dew Point: 34.0 F (1.1 C)
Relative Humidity: 53%
Pressure (altimeter): 29.92 in. Hg (1013 hPa)
Pressure tendency: 0.05 inches (1.7 hPa) higher than three hours ago
ob: KLMT 260553Z AUTO 00000KT 10SM CLR 10/01 A2992 RMK AO2 SLP106 T01000011 10222 20089 51017
cycle: 6

Station Type Date Time Source
KLMT TAF 2019/06/26 06:46 UTC NOAA

TAF KLMT 260544Z 2606/2706 28009KT P6SM SKC
FM260800 VRB03KT P6SM SKC
FM261900 20015G25KT P6SM SCT070
FM262200 23020G30KT P6SM VCTS BKN070CB
FM270300 30012KT P6SM VCSH BKN080

Example: see airport list